Cape Saint James, Canada
Current Conditions -  °F | °C
As of 6:00 PM on Friday 24 Oct 2014 (Local Time) from CYZP Reporting Station
Overcast Overcast  
Wind Chill: 50°   Ceiling: 9500
Heat Index: 50°   Visibility: 9mi
Dew Point: 45°   Wind: 21mph
Humidity: 82%   Direction: 150°SSE
Pressure: 29.77"   Gusts: 30mph
Location:  51.94°N, 131.02°W
Report Text: CYZP 250100Z AUTO 15018G26KT 9SM SCT044 BKN095 BKN110 OVC150 10/07 A2977 RMK SLP081
Loading
Personal Weather Stations






























Interactive Weather Map
Tropical Storm Tracking
New forecast layout! Learn more

10-Day Weather Forecast

Advertisements
Track Severe Weather on mobile